Terminal Aerodrome Forecast
Issued by NWS

Current Version | Previous Version | Text Only | Print | Product List | Glossary Off
Versions: 1 2 3 4 5 6 7 8 9 10 11 12 13 14 15 16 17 18 19 20 21 22

000
FTUS41 KRLX 171700
TAFCKB
TAF
KCKB 171736Z 1718/1818 VRB03KT P6SM SCT045
     FM180400 00000KT 4SM BR SCT045
     FM180600 00000KT 2SM BR BKN035
     FM180700 00000KT 1/2SM FG VV001
     FM181300 00000KT 2SM BR BKN003
     FM181400 00000KT P6SM SCT045=

USA.gov is the U.S. government's official web portal to all federal, state and local government web resources and services.